Time;durP1;ratioP1;P1;durP2;ratioP2;P2;SDS_P1;SDS_P2;PMS_P1;PMS_P2;Temp;Humidity;BMP_temperature;BMP_pressure;BME280_temperature;BME280_humidity;BME280_pressure;Samples;Min_cycle;Max_cycle;Signal;HPM_P1;HPM_P2
2022/11/29 00:01:12;;;;;;;291.63;42.58;;;8.40;99.90;;;;;;5016927;28;20382;-73
2022/11/29 00:03:37;;;;;;;324.40;42.47;;;8.40;99.90;;;;;;5016816;28;20343;-72
2022/11/29 00:06:08;;;;;;;294.23;43.10;;;8.50;99.90;;;;;;5015042;28;20116;-73
2022/11/29 00:08:35;;;;;;;302.98;44.35;;;8.40;99.90;;;;;;5016535;28;20116;-73
2022/11/29 00:11:12;;;;;;;500.58;52.17;;;8.40;99.90;;;;;;5016456;28;20474;-72
2022/11/29 00:13:38;;;;;;;376.25;44.92;;;8.40;99.90;;;;;;5016646;28;20116;-72
2022/11/29 00:16:10;;;;;;;415.63;47.17;;;8.40;99.90;;;;;;5016720;28;20046;-72
2022/11/29 00:18:39;;;;;;;316.73;41.95;;;8.40;99.90;;;;;;5015996;28;20687;-73
2022/11/29 00:21:06;;;;;;;250.52;39.25;;;8.40;99.90;;;;;;5016173;28;20038;-73
2022/11/29 00:23:32;;;;;;;241.23;36.30;;;8.30;99.90;;;;;;5016532;28;20370;-73
2022/11/29 00:26:05;;;;;;;193.55;35.30;;;8.30;99.90;;;;;;5016511;28;20048;-72
2022/11/29 00:28:31;;;;;;;363.88;41.60;;;8.30;99.90;;;;;;5016513;28;20042;-72
2022/11/29 00:30:57;;;;;;;217.23;35.58;;;8.30;99.90;;;;;;5016453;28;20049;-73
2022/11/29 00:33:22;;;;;;;307.20;41.80;;;8.30;99.90;;;;;;5016101;28;20061;-73
2022/11/29 00:35:51;;;;;;;202.88;35.00;;;8.30;99.90;;;;;;4999332;28;20047;-73
2022/11/29 00:38:20;;;;;;;392.15;49.22;;;8.30;99.90;;;;;;5016045;28;20471;-73
2022/11/29 00:40:50;;;;;;;221.27;36.47;;;8.30;99.90;;;;;;4998662;28;20045;-72
2022/11/29 00:43:18;;;;;;;352.52;44.67;;;8.30;99.90;;;;;;4982496;28;20037;-73
2022/11/29 00:45:44;;;;;;;430.33;47.33;;;8.30;99.90;;;;;;5015541;28;20038;-73
2022/11/29 00:48:12;;;;;;;302.20;39.92;;;8.30;99.90;;;;;;5015761;28;20100;-72
2022/11/29 00:50:38;;;;;;;265.60;36.83;;;8.30;99.90;;;;;;4998716;28;20049;-73
2022/11/29 00:53:03;;;;;;;209.38;34.40;;;8.30;99.90;;;;;;5016130;28;20037;-72
2022/11/29 00:55:29;;;;;;;353.02;40.15;;;8.30;99.90;;;;;;4998445;28;20433;-73
2022/11/29 00:57:58;;;;;;;291.83;41.00;;;8.30;99.90;;;;;;5016042;28;20073;-72
2022/11/29 01:00:23;;;;;;;306.55;37.90;;;8.30;99.90;;;;;;5015748;28;20054;-73
2022/11/29 01:02:49;;;;;;;195.10;35.33;;;8.30;99.90;;;;;;5015495;28;20446;-73
2022/11/29 01:05:15;;;;;;;312.02;42.83;;;8.30;99.90;;;;;;5015696;28;20038;-73
2022/11/29 01:07:40;;;;;;;235.55;39.30;;;8.30;99.90;;;;;;5015878;28;20120;-73
2022/11/29 01:10:07;;;;;;;327.90;42.55;;;8.30;99.90;;;;;;5015882;28;20101;-73
2022/11/29 01:12:35;;;;;;;199.60;35.60;;;8.30;99.90;;;;;;5014961;28;20046;-73
2022/11/29 01:15:03;;;;;;;213.27;35.72;;;8.30;99.90;;;;;;5015497;28;20125;-73
2022/11/29 01:17:28;;;;;;;237.43;42.25;;;8.30;99.90;;;;;;5015461;28;20046;-73
2022/11/29 01:19:57;;;;;;;236.07;39.13;;;8.30;99.90;;;;;;4998193;28;20053;-73
2022/11/29 01:22:22;;;;;;;295.45;41.55;;;8.40;99.90;;;;;;5015361;28;20069;-72
2022/11/29 01:24:48;;;;;;;201.05;37.33;;;8.30;99.90;;;;;;5015640;28;20466;-72
2022/11/29 01:27:14;;;;;;;471.25;48.60;;;8.30;99.90;;;;;;5015269;28;20041;-72
2022/11/29 01:29:40;;;;;;;306.02;41.17;;;8.60;99.90;;;;;;5015790;28;20046;-72
2022/11/29 01:32:05;;;;;;;423.85;46.88;;;8.30;99.90;;;;;;5015444;28;20072;-72
2022/11/29 01:34:31;;;;;;;214.82;35.92;;;8.30;99.90;;;;;;5015201;28;20065;-72
2022/11/29 01:36:56;;;;;;;257.17;41.00;;;8.30;99.90;;;;;;5015440;28;20111;-72
2022/11/29 01:39:22;;;;;;;344.45;45.80;;;8.30;99.90;;;;;;4998080;28;20038;-72
2022/11/29 01:41:47;;;;;;;396.67;49.65;;;8.30;99.90;;;;;;5015119;28;20442;-72
2022/11/29 01:44:13;;;;;;;240.13;41.72;;;8.30;99.90;;;;;;5016064;28;20046;-72
2022/11/29 01:46:42;;;;;;;184.32;36.85;;;8.30;99.90;;;;;;5015579;28;20066;-72
2022/11/29 01:49:13;;;;;;;141.38;34.25;;;8.40;99.90;;;;;;4981866;28;20041;-72
2022/11/29 01:51:43;;;;;;;171.70;35.40;;;8.30;99.90;;;;;;5015898;28;20092;-72
2022/11/29 01:54:10;;;;;;;265.75;41.72;;;8.60;99.90;;;;;;4997661;28;20065;-72
2022/11/29 01:56:37;;;;;;;151.00;35.42;;;8.30;99.90;;;;;;5016439;28;20124;-72
2022/11/29 01:59:08;;;;;;;262.50;40.78;;;8.30;99.90;;;;;;5019084;28;20109;-72
2022/11/29 02:01:35;;;;;;;244.82;41.08;;;8.30;99.90;;;;;;5019435;28;20045;-72
2022/11/29 02:04:01;;;;;;;156.40;35.95;;;8.60;99.90;;;;;;5019295;28;20053;-73
2022/11/29 02:06:29;;;;;;;184.95;36.90;;;8.20;99.90;;;;;;5019463;28;20049;-72
2022/11/29 02:08:56;;;;;;;166.95;36.30;;;8.50;99.90;;;;;;5019145;28;20103;-72
2022/11/29 02:11:50;;;;;;;198.10;36.85;;;8.20;99.90;;;;;;5001228;28;20489;-72
2022/11/29 02:14:41;;;;;;;227.18;37.90;;;8.20;99.90;;;;;;5001621;28;20108;-72
2022/11/29 02:17:33;;;;;;;151.40;36.45;;;8.20;99.90;;;;;;5019013;28;20135;-72
2022/11/29 02:20:36;;;;;;;203.10;38.03;;;8.20;99.90;;;;;;5018709;28;20034;-72
2022/11/29 02:23:23;;;;;;;326.67;42.97;;;8.20;99.90;;;;;;5019038;28;20081;-72
2022/11/29 02:26:37;;;;;;;172.52;36.20;;;8.20;99.90;;;;;;5018527;28;20100;-72
2022/11/29 02:29:02;;;;;;;168.05;34.85;;;8.20;99.90;;;;;;5001205;28;20473;-72
2022/11/29 02:31:59;;;;;;;199.07;38.55;;;8.20;99.90;;;;;;5018957;28;20038;-72
2022/11/29 02:34:50;;;;;;;192.40;36.92;;;8.20;99.90;;;;;;5018383;28;20037;-72
2022/11/29 02:37:47;;;;;;;226.52;38.65;;;8.20;99.90;;;;;;5018356;28;20060;-72
2022/11/29 02:40:31;;;;;;;274.77;39.63;;;8.20;99.90;;;;;;4984337;28;20056;-72
2022/11/29 02:43:24;;;;;;;149.70;33.78;;;8.20;99.90;;;;;;5001137;28;20435;-72
2022/11/29 02:45:53;;;;;;;313.47;42.70;;;8.20;99.90;;;;;;4985297;28;20037;-72
2022/11/29 02:48:40;;;;;;;192.90;36.03;;;8.10;99.90;;;;;;5018459;28;20279;-72
2022/11/29 02:51:05;;;;;;;315.17;41.38;;;8.10;99.90;;;;;;5018058;28;20124;-72
2022/11/29 02:53:59;;;;;;;196.00;37.10;;;8.10;99.90;;;;;;5000725;28;20133;-72
2022/11/29 02:56:43;;;;;;;390.88;47.20;;;8.10;99.90;;;;;;5018281;28;20422;-72
2022/11/29 02:59:28;;;;;;;210.02;36.95;;;8.10;99.90;;;;;;5018119;28;20042;-72
2022/11/29 03:02:21;;;;;;;168.20;36.95;;;8.10;99.90;;;;;;5000495;28;20133;-72
2022/11/29 03:05:14;;;;;;;134.30;32.75;;;8.10;99.90;;;;;;5017999;28;20042;-72
2022/11/29 03:08:17;;;;;;;268.20;42.22;;;8.10;99.90;;;;;;5017003;28;20060;-72
2022/11/29 03:11:06;;;;;;;173.43;35.88;;;8.10;99.90;;;;;;4998180;28;20042;-72
2022/11/29 03:13:47;;;;;;;346.35;43.85;;;8.30;99.90;;;;;;4961468;28;20050;-72
2022/11/29 03:16:54;;;;;;;186.57;36.45;;;8.00;99.90;;;;;;4998167;28;20046;-72
2022/11/29 03:20:06;;;;;;;292.50;39.35;;;8.00;99.90;;;;;;4997810;28;20049;-71
2022/11/29 03:23:00;;;;;;;335.23;42.20;;;8.00;99.90;;;;;;4964406;28;20387;-72
2022/11/29 03:25:44;;;;;;;;;;;8.00;99.90;;;;;;4998430;28;20039;-72
2022/11/29 03:28:40;;;;;;;281.95;38.83;;;8.10;99.90;;;;;;4998046;28;19917;-72
2022/11/29 03:31:19;;;;;;;212.75;36.17;;;8.00;99.90;;;;;;4996074;28;20069;-72
2022/11/29 03:33:53;;;;;;;154.02;33.95;;;8.00;99.90;;;;;;4997800;28;20045;-72
2022/11/29 03:36:49;;;;;;;234.90;38.88;;;7.90;99.90;;;;;;4996173;28;20050;-72
2022/11/29 03:39:29;;;;;;;241.82;37.95;;;7.90;99.90;;;;;;4992156;28;20053;-73
2022/11/29 03:42:01;;;;;;;158.30;34.90;;;7.90;99.90;;;;;;5017319;28;20042;-73
2022/11/29 03:44:35;;;;;;;185.43;33.95;;;7.90;99.90;;;;;;5017309;28;20065;-72
2022/11/29 03:47:14;;;;;;;257.02;35.83;;;7.90;99.90;;;;;;5017266;28;20038;-73
2022/11/29 03:49:47;;;;;;;248.10;37.78;;;7.90;99.90;;;;;;5000232;28;20050;-72
2022/11/29 03:52:34;;;;;;;195.48;34.40;;;7.90;99.90;;;;;;4984040;28;20099;-72
2022/11/29 03:55:44;;;;;;;391.65;44.90;;;7.90;99.90;;;;;;5017287;28;20125;-73
2022/11/29 03:58:19;;;;;;;305.05;40.05;;;7.90;99.90;;;;;;5016961;28;20354;-72
2022/11/29 04:00:47;;;;;;;177.43;34.53;;;7.90;99.90;;;;;;5016978;28;20057;-72
2022/11/29 04:03:13;;;;;;;229.73;34.60;;;7.80;99.90;;;;;;5016969;28;20045;-72
2022/11/29 04:06:01;;;;;;;204.98;36.78;;;7.80;99.90;;;;;;5016977;28;20038;-73
2022/11/29 04:08:51;;;;;;;174.75;33.38;;;7.80;99.90;;;;;;5016688;28;20050;-72
2022/11/29 04:11:53;;;;;;;141.75;32.05;;;7.80;99.90;;;;;;5017344;28;20045;-73
2022/11/29 04:14:33;;;;;;;231.05;38.22;;;7.80;99.90;;;;;;5000004;28;20053;-73
2022/11/29 04:17:20;;;;;;;440.23;48.28;;;7.80;99.90;;;;;;5016634;28;20061;-72
2022/11/29 04:20:14;;;;;;;165.55;33.78;;;7.80;99.90;;;;;;5016165;28;20060;-72
2022/11/29 04:23:02;;;;;;;169.93;33.85;;;7.70;99.90;;;;;;4998383;28;20058;-73
2022/11/29 04:25:50;;;;;;;101.45;32.53;;;7.80;99.90;;;;;;5016336;28;20126;-73
2022/11/29 04:28:43;;;;;;;298.15;41.47;;;7.70;99.90;;;;;;5016758;28;20112;-72
2022/11/29 04:31:33;;;;;;;201.97;35.13;;;7.70;99.90;;;;;;4999185;28;20038;-73
2022/11/29 04:34:20;;;;;;;162.38;34.80;;;7.70;99.90;;;;;;5016377;28;20070;-72
2022/11/29 04:36:57;;;;;;;279.15;37.97;;;7.70;99.90;;;;;;5016398;28;20038;-72
2022/11/29 04:39:42;;;;;;;147.18;33.03;;;7.70;99.90;;;;;;4998550;28;20049;-72
2022/11/29 04:42:35;;;;;;;149.98;32.65;;;7.70;99.90;;;;;;5015969;28;20470;-73
2022/11/29 04:45:32;;;;;;;119.80;29.83;;;7.70;99.90;;;;;;5016320;28;20038;-72
2022/11/29 04:48:09;;;;;;;114.78;32.65;;;7.70;99.90;;;;;;4998778;28;20124;-73
2022/11/29 04:50:43;;;;;;;139.05;33.38;;;7.70;99.90;;;;;;5015995;28;20038;-73
2022/11/29 04:53:36;;;;;;;241.57;37.53;;;7.70;99.90;;;;;;5015179;28;20537;-73
2022/11/29 04:56:22;;;;;;;267.17;38.53;;;7.70;99.90;;;;;;5015815;28;20113;-73
2022/11/29 04:59:03;;;;;;;127.40;29.55;;;7.70;99.90;;;;;;4998972;28;20315;-70
2022/11/29 05:01:49;;;;;;;102.93;28.75;;;7.60;99.90;;;;;;5016029;28;20061;-72
2022/11/29 05:04:30;;;;;;;196.93;33.90;;;7.60;99.90;;;;;;5015673;28;20065;-71
2022/11/29 05:07:10;;;;;;;137.57;28.98;;;7.60;99.90;;;;;;5015349;28;20125;-73
2022/11/29 05:09:59;;;;;;;139.80;31.23;;;7.60;99.90;;;;;;5004057;28;20478;-73
2022/11/29 05:12:40;;;;;;;102.63;27.95;;;7.90;99.90;;;;;;5015718;28;20056;-73
2022/11/29 05:15:15;;;;;;;174.88;30.27;;;7.60;99.90;;;;;;5015514;28;20054;-73
2022/11/29 05:18:03;;;;;;;99.82;28.75;;;7.60;99.90;;;;;;5015976;28;20100;-73
2022/11/29 05:20:29;;;;;;;119.57;28.08;;;7.60;99.90;;;;;;4998386;28;20401;-73
2022/11/29 05:23:24;;;;;;;116.97;29.60;;;7.60;99.90;;;;;;5015065;28;20112;-72
2022/11/29 05:26:13;;;;;;;110.88;26.23;;;7.50;99.90;;;;;;5013071;28;20037;-73
2022/11/29 05:28:49;;;;;;;114.30;27.92;;;7.50;99.90;;;;;;5015531;28;20131;-73
2022/11/29 05:31:35;;;;;;;173.10;30.70;;;7.50;99.90;;;;;;5014778;28;20052;-74
2022/11/29 05:34:36;;;;;;;64.20;24.45;;;7.50;99.90;;;;;;5015230;28;20346;-73
2022/11/29 05:37:26;;;;;;;82.68;24.67;;;7.50;99.90;;;;;;5015634;28;20084;-74
2022/11/29 05:40:07;;;;;;;109.32;27.15;;;7.40;99.90;;;;;;5015188;28;20046;-73
2022/11/29 05:42:51;;;;;;;79.93;25.50;;;7.40;99.90;;;;;;4981165;28;20038;-73
2022/11/29 05:45:39;;;;;;;77.15;24.92;;;7.40;99.90;;;;;;5015544;28;20124;-73
2022/11/29 05:48:31;;;;;;;94.10;26.33;;;7.40;99.90;;;;;;5015511;28;20046;-73
2022/11/29 05:51:15;;;;;;;71.25;23.67;;;7.40;99.90;;;;;;5014851;28;20041;-73
2022/11/29 05:53:59;;;;;;;98.55;25.80;;;7.40;99.90;;;;;;5015332;28;20379;-73
2022/11/29 05:56:37;;;;;;;130.38;27.20;;;7.30;99.90;;;;;;5015302;28;20045;-73
2022/11/29 05:59:06;;;;;;;99.03;25.45;;;7.40;99.90;;;;;;5007883;28;20057;-74
2022/11/29 06:02:10;;;;;;;134.45;28.33;;;7.30;99.90;;;;;;5015016;28;20117;-73
2022/11/29 06:05:14;;;;;;;56.40;23.10;;;7.30;99.90;;;;;;4970147;28;20530;-73
2022/11/29 06:08:03;;;;;;;66.15;22.70;;;7.20;99.90;;;;;;5015349;28;20057;-73
2022/11/29 06:10:32;;;;;;;112.95;28.02;;;7.30;99.90;;;;;;5014982;28;20038;-73
2022/11/29 06:13:18;;;;;;;69.60;22.77;;;7.30;99.90;;;;;;5014790;28;20042;-73
2022/11/29 06:16:17;;;;;;;75.25;23.33;;;7.20;99.90;;;;;;5014844;28;20046;-73
2022/11/29 06:19:28;;;;;;;99.45;26.30;;;7.20;99.90;;;;;;4997291;28;20092;-73
2022/11/29 06:22:15;;;;;;;70.47;23.42;;;7.20;99.90;;;;;;4981325;28;20058;-73
2022/11/29 06:25:19;;;;;;;108.85;25.98;;;7.20;99.90;;;;;;4997320;28;20045;-73
2022/11/29 06:27:59;;;;;;;74.18;23.23;;;7.20;99.90;;;;;;5014911;28;20053;-74
2022/11/29 06:30:42;;;;;;;71.60;23.85;;;7.20;99.90;;;;;;5014645;28;20466;-73
2022/11/29 06:33:21;;;;;;;98.40;25.70;;;7.20;99.90;;;;;;5015125;28;20034;-73
2022/11/29 06:36:08;;;;;;;71.07;23.40;;;7.20;99.90;;;;;;5014463;28;20462;-74
2022/11/29 06:38:34;;;;;;;128.85;27.63;;;7.20;99.90;;;;;;5014513;28;20042;-73
2022/11/29 06:41:00;;;;;;;88.63;25.27;;;7.20;99.90;;;;;;5014627;28;20132;-73
2022/11/29 06:43:26;;;;;;;97.20;25.95;;;7.20;99.90;;;;;;5000423;28;20100;-73
2022/11/29 06:45:58;;;;;;;144.18;28.70;;;7.20;99.90;;;;;;5018532;28;20049;-73
2022/11/29 06:48:33;;;;;;;106.32;25.55;;;7.20;99.90;;;;;;5016301;28;20069;-73
2022/11/29 06:51:25;;;;;;;99.85;26.60;;;7.10;99.90;;;;;;4998535;28;20039;-73
2022/11/29 06:54:09;;;;;;;88.40;26.88;;;7.10;99.90;;;;;;4988263;28;20054;-73
2022/11/29 06:56:48;;;;;;;76.97;25.52;;;7.10;99.90;;;;;;4999465;28;20129;-73
2022/11/29 06:59:44;;;;;;;116.10;28.08;;;7.20;99.90;;;;;;4998437;28;20057;-73
2022/11/29 07:02:28;;;;;;;120.20;28.40;;;7.20;99.90;;;;;;4990716;28;20056;-73
2022/11/29 07:05:08;;;;;;;89.10;26.13;;;7.10;99.90;;;;;;5018157;28;20054;-73
2022/11/29 07:07:34;;;;;;;94.35;27.75;;;7.10;99.90;;;;;;5000479;28;20446;-73
2022/11/29 07:10:03;;;;;;;62.63;25.00;;;7.10;99.90;;;;;;5000403;28;20077;-73
2022/11/29 07:12:28;;;;;;;57.47;23.98;;;7.10;99.90;;;;;;5000319;28;20033;-73
2022/11/29 07:14:55;;;;;;;62.25;25.13;;;7.10;99.90;;;;;;5017888;28;20120;-73
2022/11/29 07:17:31;;;;;;;110.90;29.67;;;7.10;99.90;;;;;;5017830;28;20054;-73
2022/11/29 07:20:11;;;;;;;79.60;26.02;;;7.10;99.90;;;;;;4999170;28;20053;-73
2022/11/29 07:22:53;;;;;;;60.20;24.52;;;7.10;99.90;;;;;;5015416;28;20358;-73
2022/11/29 07:25:49;;;;;;;64.82;26.67;;;7.10;99.90;;;;;;5018296;28;20057;-73
2022/11/29 07:28:23;;;;;;;73.53;26.77;;;7.10;99.90;;;;;;5017604;28;20052;-73
2022/11/29 07:30:55;;;;;;;63.90;26.83;;;7.10;99.90;;;;;;4983687;28;20053;-73
2022/11/29 07:33:51;;;;;;;60.85;26.73;;;7.10;99.90;;;;;;5017579;28;20038;-73
2022/11/29 07:36:58;;;;;;;68.05;25.58;;;7.10;99.90;;;;;;5016711;28;20057;-73
2022/11/29 07:39:35;;;;;;;102.30;30.38;;;7.10;99.90;;;;;;4937781;29;20051;-73
2022/11/29 07:42:35;;;;;;;69.45;27.20;;;7.10;99.90;;;;;;4937696;29;20040;-73
2022/11/29 07:45:22;;;;;;;67.85;27.17;;;7.10;99.90;;;;;;4982726;28;20339;-73
2022/11/29 07:47:49;;;;;;;61.45;28.10;;;7.10;99.90;;;;;;5017012;28;20056;-73
2022/11/29 07:50:15;;;;;;;65.18;27.23;;;7.10;99.90;;;;;;4999479;28;20064;-73
2022/11/29 07:52:40;;;;;;;64.95;28.02;;;7.20;99.90;;;;;;5017322;28;20042;-73
2022/11/29 07:55:10;;;;;;;73.63;28.42;;;7.20;99.90;;;;;;5017345;28;20467;-73
2022/11/29 07:57:36;;;;;;;61.30;25.38;;;7.20;99.90;;;;;;5016847;28;20049;-73
2022/11/29 08:00:03;;;;;;;80.22;29.50;;;7.20;99.90;;;;;;5016799;28;20046;-73
2022/11/29 08:02:30;;;;;;;65.60;27.30;;;7.20;99.90;;;;;;5017304;28;20129;-73
2022/11/29 08:04:55;;;;;;;75.47;29.98;;;7.20;99.90;;;;;;5016989;28;20057;-73
2022/11/29 08:07:27;;;;;;;69.25;26.98;;;7.20;99.90;;;;;;5017087;28;20046;-74
2022/11/29 08:09:53;;;;;;;91.60;30.92;;;7.30;99.90;;;;;;5016807;28;20129;-73
2022/11/29 08:12:18;;;;;;;89.43;31.50;;;7.30;99.90;;;;;;5016589;28;20498;-73
2022/11/29 08:14:44;;;;;;;66.15;27.38;;;7.30;99.90;;;;;;4999520;28;20049;-73
2022/11/29 08:17:09;;;;;;;72.30;28.05;;;7.30;99.90;;;;;;5016830;28;20104;-73
2022/11/29 08:19:35;;;;;;;63.58;29.80;;;7.30;99.90;;;;;;5016705;28;20042;-73
2022/11/29 08:22:01;;;;;;;93.40;32.13;;;7.40;99.90;;;;;;5015974;28;20060;-73
2022/11/29 08:24:26;;;;;;;84.05;31.15;;;7.30;99.90;;;;;;4982762;28;20429;-73
2022/11/29 08:26:52;;;;;;;99.20;34.65;;;7.40;99.90;;;;;;5015069;28;20145;-74
2022/11/29 08:29:18;;;;;;;73.30;29.38;;;7.40;99.90;;;;;;5016358;28;20430;-73
2022/11/29 08:31:44;;;;;;;72.55;29.65;;;7.40;99.90;;;;;;5016514;28;20370;-73
2022/11/29 08:34:10;;;;;;;57.97;27.15;;;7.40;99.90;;;;;;4982797;28;20053;-73
2022/11/29 08:36:36;;;;;;;71.68;29.08;;;7.60;99.90;;;;;;4999080;28;20042;-73
2022/11/29 08:39:03;;;;;;;65.03;29.83;;;7.50;99.90;;;;;;5016220;28;20451;-73
2022/11/29 08:41:29;;;;;;;61.65;27.95;;;7.50;99.90;;;;;;4998712;28;20046;-73
2022/11/29 08:43:57;;;;;;;57.72;27.23;;;7.50;99.90;;;;;;5015740;28;20046;-73
2022/11/29 08:47:34;;;;;;;75.90;29.80;;;7.50;99.90;;;;;;5016416;28;20046;-73
2022/11/29 08:49:14;;;;;;;89.90;31.02;;;7.60;99.90;;;;;;5015574;28;20439;-73
2022/11/29 08:51:40;;;;;;;53.25;25.75;;;8.00;99.90;;;;;;5016003;28;20069;-73
2022/11/29 08:54:05;;;;;;;61.53;26.00;;;7.60;99.90;;;;;;5015903;28;20089;-73
2022/11/29 08:56:31;;;;;;;69.57;27.95;;;7.60;99.90;;;;;;5016229;28;20081;-73
2022/11/29 08:58:56;;;;;;;58.63;26.33;;;7.60;99.90;;;;;;5015501;28;20458;-73
2022/11/29 09:01:22;;;;;;;52.55;25.55;;;7.60;99.90;;;;;;5016067;28;20042;-73
2022/11/29 09:04:03;;;;;;;48.63;23.75;;;7.60;99.90;;;;;;4998238;28;20370;-73
2022/11/29 09:06:38;;;;;;;48.75;22.88;;;7.70;99.90;;;;;;4997256;28;20517;-73
2022/11/29 09:09:04;;;;;;;52.22;24.15;;;7.70;99.90;;;;;;5015668;28;20041;-74
2022/11/29 09:11:32;;;;;;;48.15;23.50;;;7.70;99.90;;;;;;5016089;28;20177;-73
2022/11/29 09:14:01;;;;;;;47.95;25.08;;;7.80;99.90;;;;;;5015556;28;20053;-73
2022/11/29 09:16:31;;;;;;;51.65;24.02;;;7.70;99.90;;;;;;5015484;28;20062;-73
2022/11/29 09:18:57;;;;;;;44.00;21.63;;;7.80;99.90;;;;;;5015367;28;20477;-73
2022/11/29 09:21:24;;;;;;;47.88;22.55;;;7.80;99.90;;;;;;5015109;28;20053;-74
2022/11/29 09:23:57;;;;;;;46.60;22.38;;;7.80;99.90;;;;;;5015450;28;20049;-73
2022/11/29 09:26:28;;;;;;;45.70;21.33;;;7.80;99.90;;;;;;5015172;28;20042;-73
2022/11/29 09:28:54;;;;;;;52.03;22.00;;;7.60;99.90;;;;;;5015439;28;20497;-73
2022/11/29 09:31:22;;;;;;;45.20;22.02;;;8.10;99.90;;;;;;4998379;28;20105;-73
2022/11/29 09:33:48;;;;;;;46.78;20.67;;;7.90;99.90;;;;;;5015356;28;20394;-74
2022/11/29 09:36:14;;;;;;;45.00;20.30;;;8.00;99.90;;;;;;4998242;28;20391;-73
2022/11/29 09:38:40;;;;;;;41.90;20.23;;;8.00;99.90;;;;;;5015257;28;20480;-73
2022/11/29 09:41:31;;;;;;;40.70;19.73;;;8.10;99.90;;;;;;5014971;28;20169;-73
2022/11/29 09:44:08;;;;;;;46.80;19.70;;;8.10;99.90;;;;;;5015280;28;20069;-73
2022/11/29 09:46:42;;;;;;;43.42;20.58;;;8.10;99.90;;;;;;4997521;28;20465;-74
2022/11/29 09:49:41;;;;;;;40.40;18.25;;;8.20;99.90;;;;;;4997841;28;20049;-74
2022/11/29 09:52:27;;;;;;;36.63;18.92;;;8.30;99.90;;;;;;5015115;28;20042;-74
2022/11/29 09:55:09;;;;;;;40.47;19.10;;;8.40;99.90;;;;;;5014912;28;20034;-74
2022/11/29 09:57:36;;;;;;;46.40;19.20;;;8.40;99.90;;;;;;5015086;28;20042;-74
2022/11/29 10:00:06;;;;;;;36.20;17.65;;;8.50;99.90;;;;;;4998508;28;20124;-74
2022/11/29 10:02:52;;;;;;;36.03;18.95;;;8.50;99.90;;;;;;5015028;28;20089;-74
2022/11/29 10:05:32;;;;;;;33.92;15.80;;;8.60;99.90;;;;;;5015181;28;20042;-74
2022/11/29 10:08:07;;;;;;;30.15;16.45;;;8.60;99.90;;;;;;5015087;28;20065;-74
2022/11/29 10:10:43;;;;;;;34.85;16.13;;;8.60;99.90;;;;;;5014890;28;20046;-74
2022/11/29 10:13:35;;;;;;;35.17;15.63;;;9.40;99.90;;;;;;4997714;28;20046;-74
2022/11/29 10:16:12;;;;;;;40.38;17.15;;;8.70;99.90;;;;;;5014919;28;20077;-74
2022/11/29 10:18:58;;;;;;;38.10;15.93;;;8.70;99.90;;;;;;5000518;28;20042;-73
2022/11/29 10:21:31;;;;;;;35.58;16.70;;;8.80;99.90;;;;;;5018869;28;20320;-74
2022/11/29 10:24:03;;;;;;;39.83;16.90;;;9.20;99.90;;;;;;5018445;28;20539;-74
2022/11/29 10:26:29;;;;;;;34.22;14.60;;;8.90;99.90;;;;;;5001441;28;20060;-74
2022/11/29 10:28:56;;;;;;;38.50;16.67;;;8.90;99.90;;;;;;5018498;28;20034;-74
2022/11/29 10:31:25;;;;;;;38.25;18.83;;;8.90;99.90;;;;;;5018861;28;20049;-73
2022/11/29 10:33:53;;;;;;;32.22;15.85;;;9.00;99.90;;;;;;5018842;28;20056;-74
2022/11/29 10:36:30;;;;;;;29.40;15.25;;;9.20;99.90;;;;;;5018444;28;20124;-74
2022/11/29 10:39:02;;;;;;;34.35;15.52;;;9.00;99.90;;;;;;5018108;28;20045;-74
2022/11/29 10:41:28;;;;;;;33.88;16.00;;;9.00;99.90;;;;;;5001122;28;20050;-73
2022/11/29 10:43:57;;;;;;;32.67;15.48;;;9.10;99.90;;;;;;5018637;28;20058;-74
2022/11/29 10:46:32;;;;;;;31.48;15.52;;;9.10;99.90;;;;;;5017424;28;20080;-73
2022/11/29 10:49:00;;;;;;;36.95;16.40;;;9.10;99.90;;;;;;5018125;28;20041;-74
2022/11/29 10:51:27;;;;;;;34.50;14.93;;;9.20;99.90;;;;;;5018278;28;20085;-74
2022/11/29 10:53:54;;;;;;;34.85;15.88;;;9.10;99.90;;;;;;5018257;28;20046;-73
2022/11/29 10:56:30;;;;;;;30.92;16.10;;;9.10;99.90;;;;;;5000807;28;20053;-73
2022/11/29 10:59:02;;;;;;;41.72;18.08;;;9.20;99.90;;;;;;5018462;28;20050;-74
2022/11/29 11:01:30;;;;;;;39.17;16.63;;;9.20;99.90;;;;;;5018026;28;20038;-73
2022/11/29 11:03:58;;;;;;;33.10;15.95;;;9.20;99.90;;;;;;5017944;28;20033;-74
2022/11/29 11:06:44;;;;;;;33.30;15.23;;;9.20;99.90;;;;;;5017645;28;20471;-74
2022/11/29 11:09:34;;;;;;;40.67;16.73;;;9.20;99.90;;;;;;5017428;28;20042;-74
2022/11/29 11:12:05;;;;;;;34.85;15.85;;;9.20;99.90;;;;;;5000171;28;20042;-73
2022/11/29 11:14:35;;;;;;;36.40;16.08;;;9.30;99.90;;;;;;5018188;28;20129;-73
2022/11/29 11:17:31;;;;;;;38.70;15.98;;;9.30;99.90;;;;;;5017794;28;20042;-74
2022/11/29 11:19:59;;;;;;;33.78;15.27;;;9.40;99.90;;;;;;5015345;28;20136;-74
2022/11/29 11:22:26;;;;;;;36.30;16.55;;;9.40;99.90;;;;;;5017575;28;20112;-73
2022/11/29 11:25:27;;;;;;;31.77;16.23;;;9.50;99.90;;;;;;5017817;28;20078;-74
2022/11/29 11:27:53;;;;;;;30.92;17.25;;;9.60;99.90;;;;;;5012636;28;20085;-74
2022/11/29 11:30:26;;;;;;;33.80;16.77;;;9.60;99.90;;;;;;5016999;28;20324;-73
2022/11/29 11:33:21;;;;;;;32.30;16.67;;;9.70;99.90;;;;;;5017481;28;20038;-73
2022/11/29 11:36:07;;;;;;;38.95;17.77;;;9.70;99.90;;;;;;5017307;28;20046;-74
2022/11/29 11:38:34;;;;;;;36.78;17.25;;;9.80;99.90;;;;;;5017436;28;20155;-73
2022/11/29 11:41:17;;;;;;;34.85;17.13;;;9.90;99.90;;;;;;5017086;28;20133;-74
2022/11/29 11:43:57;;;;;;;26.15;16.08;;;9.90;99.90;;;;;;5017543;28;20172;-73
2022/11/29 11:46:44;;;;;;;33.72;19.08;;;9.90;99.90;;;;;;5017382;28;20038;-74
2022/11/29 11:49:22;;;;;;;37.33;18.63;;;10.10;99.90;;;;;;5017360;28;20156;-73
2022/11/29 11:51:48;;;;;;;24.10;17.55;;;10.00;99.90;;;;;;5016806;28;20081;-74
2022/11/29 11:54:15;;;;;;;26.30;16.88;;;10.00;99.90;;;;;;5017499;28;20125;-74
2022/11/29 11:56:43;;;;;;;29.67;21.80;;;10.00;99.90;;;;;;5017108;28;20147;-74
2022/11/29 11:59:19;;;;;;;32.75;22.75;;;10.00;99.90;;;;;;5017102;28;20464;-74
2022/11/29 12:01:45;;;;;;;31.27;19.38;;;10.00;99.90;;;;;;5016877;28;20049;-74
2022/11/29 12:04:16;;;;;;;24.02;15.60;;;10.00;99.90;;;;;;5016829;28;20038;-74
2022/11/29 12:06:50;;;;;;;26.73;16.63;;;9.90;99.90;;;;;;5016475;28;20052;-74
2022/11/29 12:09:49;;;;;;;22.52;14.65;;;9.90;99.90;;;;;;5016750;28;20455;-74
2022/11/29 12:12:32;;;;;;;23.13;16.80;;;9.80;99.90;;;;;;4999382;28;20459;-74
2022/11/29 12:15:22;;;;;;;22.02;15.75;;;9.70;99.90;;;;;;5016779;28;20370;-73
2022/11/29 12:17:56;;;;;;;22.60;16.42;;;9.70;99.90;;;;;;5017018;28;20091;-73
2022/11/29 12:20:44;;;;;;;21.10;14.77;;;9.60;99.90;;;;;;5016523;28;20034;-73
2022/11/29 12:23:12;;;;;;;22.65;13.88;;;9.60;99.90;;;;;;5016692;28;20081;-73
2022/11/29 12:25:57;;;;;;;19.95;14.13;;;9.60;99.90;;;;;;4999651;28;20062;-74
2022/11/29 12:28:32;;;;;;;20.13;14.05;;;9.60;99.90;;;;;;5016582;28;20096;-73
2022/11/29 12:31:35;;;;;;;18.52;14.23;;;9.60;99.90;;;;;;5015482;28;20392;-73
2022/11/29 12:34:39;;;;;;;17.83;13.43;;;9.60;99.90;;;;;;5016433;28;20041;-73
2022/11/29 12:37:20;;;;;;;20.35;14.02;;;9.60;99.90;;;;;;4996725;28;20057;-73
2022/11/29 12:40:15;;;;;;;19.92;15.07;;;9.60;99.90;;;;;;4996319;28;20054;-74
2022/11/29 12:42:45;;;;;;;17.88;12.30;;;9.60;99.90;;;;;;4996647;28;20058;-73
2022/11/29 12:45:29;;;;;;;14.63;12.30;;;9.70;99.90;;;;;;4979539;28;20050;-73
2022/11/29 12:47:54;;;;;;;;;;;9.50;99.90;;;;;;4996909;28;20046;-73
2022/11/29 12:50:34;;;;;;;12.32;10.88;;;9.40;99.90;;;;;;5006385;28;19924;-73
2022/11/29 12:53:28;;;;;;;16.20;12.00;;;9.40;99.90;;;;;;5015781;28;20041;-73
2022/11/29 12:56:12;;;;;;;15.80;12.02;;;9.40;99.90;;;;;;5016220;28;20065;-73
2022/11/29 12:58:55;;;;;;;16.42;13.20;;;9.40;99.90;;;;;;5016005;28;20119;-73
2022/11/29 13:01:46;;;;;;;19.00;14.27;;;9.40;99.90;;;;;;5015941;28;20046;-74
2022/11/29 13:04:36;;;;;;;16.20;13.05;;;9.40;99.90;;;;;;5014781;28;20133;-73
2022/11/29 13:07:19;;;;;;;19.48;13.80;;;9.30;99.90;;;;;;4978796;28;20038;-73
2022/11/29 13:09:56;;;;;;;15.48;13.35;;;9.30;99.90;;;;;;4996207;28;20047;-73
2022/11/29 13:12:53;;;;;;;16.02;14.25;;;9.30;99.90;;;;;;4996056;28;20038;-74
2022/11/29 13:15:33;;;;;;;16.48;13.18;;;9.20;99.90;;;;;;4984095;28;20065;-73
2022/11/29 13:18:01;;;;;;;17.83;14.23;;;9.20;99.90;;;;;;4996178;28;20042;-73
2022/11/29 13:20:46;;;;;;;18.95;15.48;;;9.30;99.90;;;;;;5006020;28;20129;-73
2022/11/29 13:23:31;;;;;;;18.20;14.55;;;9.10;99.90;;;;;;4997836;28;20116;-73
2022/11/29 13:26:02;;;;;;;16.55;14.00;;;9.20;99.90;;;;;;5015485;28;20081;-73